createdAt,value
2022-11-08T00:03:10.199Z,1.40
2022-11-08T00:06:51.032Z,1.27
2022-11-08T00:10:31.931Z,1.15
2022-11-08T00:14:00.423Z,1.30
2022-11-08T00:17:24.679Z,1.20
2022-11-08T00:20:46.875Z,1.23
2022-11-08T00:24:09.238Z,1.48
2022-11-08T00:27:31.686Z,1.10
2022-11-08T00:30:53.908Z,1.10
2022-11-08T00:34:16.122Z,1.17
2022-11-08T00:37:38.415Z,1.40
2022-11-08T00:41:00.703Z,1.10
2022-11-08T00:44:22.942Z,1.10
2022-11-08T00:47:45.195Z,1.40
2022-11-08T00:51:10.269Z,1.30
2022-11-08T00:54:32.560Z,1.45
2022-11-08T00:57:59.613Z,1.00
2022-11-08T01:01:22.519Z,1.38
2022-11-08T01:04:44.782Z,1.40
2022-11-08T01:08:07.023Z,0.95
2022-11-08T01:11:29.263Z,1.50
2022-11-08T01:14:51.495Z,1.40
2022-11-08T01:18:16.817Z,1.08
2022-11-08T01:21:39.287Z,1.35
2022-11-08T01:25:01.489Z,1.33
2022-11-08T01:28:23.721Z,1.10
2022-11-08T01:31:46.000Z,1.23
2022-11-08T01:35:08.695Z,1.20
2022-11-08T01:38:30.903Z,1.30
2022-11-08T01:41:53.119Z,1.23
2022-11-08T01:45:15.347Z,1.30
2022-11-08T01:48:42.148Z,1.50
2022-11-08T01:52:13.652Z,1.75
2022-11-08T01:55:36.873Z,1.23
2022-11-08T01:59:02.694Z,1.23
2022-11-08T02:02:25.223Z,1.10
2022-11-08T02:05:48.087Z,1.10
2022-11-08T02:09:14.121Z,1.20
2022-11-08T02:12:36.429Z,1.05
2022-11-08T02:15:58.801Z,1.02
2022-11-08T02:19:38.518Z,1.02
2022-11-08T02:23:21.906Z,1.10
2022-11-08T02:26:45.873Z,0.90
2022-11-08T02:30:08.714Z,0.88
2022-11-08T02:33:30.920Z,0.93
2022-11-08T02:36:53.743Z,0.90
2022-11-08T02:40:16.036Z,0.90
2022-11-08T02:43:38.521Z,0.90
2022-11-08T02:47:00.775Z,0.88
2022-11-08T02:50:22.966Z,0.95
2022-11-08T02:53:45.164Z,0.93
2022-11-08T02:57:07.610Z,0.50
2022-11-08T03:00:30.369Z,1.00
2022-11-08T03:03:52.637Z,0.80
2022-11-08T03:07:14.916Z,0.70
2022-11-08T03:10:37.139Z,0.57
2022-11-08T03:13:59.471Z,0.60
2022-11-08T03:17:21.684Z,0.52
2022-11-08T03:20:44.502Z,0.50
2022-11-08T03:24:07.139Z,0.80
2022-11-08T03:27:29.465Z,0.60
2022-11-08T03:30:53.156Z,0.85
2022-11-08T03:34:15.351Z,0.57
2022-11-08T03:37:37.570Z,0.47
2022-11-08T03:40:59.803Z,0.50
2022-11-08T03:44:22.042Z,0.50
2022-11-08T03:47:47.026Z,0.50
2022-11-08T03:51:13.446Z,0.50
2022-11-08T03:54:35.669Z,0.40
2022-11-08T03:57:58.011Z,0.38
2022-11-08T04:01:20.401Z,0.55
2022-11-08T04:04:42.636Z,0.30
2022-11-08T04:08:05.403Z,0.55
2022-11-08T04:11:46.353Z,0.43
2022-11-08T04:15:17.655Z,0.30
2022-11-08T04:18:58.747Z,0.30
2022-11-08T04:22:21.098Z,0.40
2022-11-08T04:25:44.493Z,0.40
2022-11-08T04:29:08.104Z,0.50
2022-11-08T04:32:30.292Z,0.47
2022-11-08T04:35:53.136Z,0.40
2022-11-08T04:39:15.341Z,0.17
2022-11-08T04:42:37.565Z,0.22
2022-11-08T04:46:11.523Z,0.35
2022-11-08T04:49:33.709Z,0.30
2022-11-08T04:52:56.156Z,0.28
2022-11-08T04:56:20.580Z,0.30
2022-11-08T04:59:42.820Z,0.30
2022-11-08T05:03:05.041Z,0.30
2022-11-08T05:06:29.866Z,0.28
2022-11-08T05:09:52.067Z,0.38
2022-11-08T05:13:14.276Z,0.43
2022-11-08T05:16:36.555Z,0.30
2022-11-08T05:20:17.530Z,0.40
2022-11-08T05:23:39.854Z,0.40
2022-11-08T05:27:02.064Z,0.28
2022-11-08T05:30:24.291Z,0.30
2022-11-08T05:33:46.896Z,0.25
2022-11-08T05:37:09.105Z,0.30
2022-11-08T05:40:33.609Z,0.32
2022-11-08T05:43:56.240Z,0.45
2022-11-08T05:47:18.540Z,0.40
2022-11-08T05:50:41.193Z,0.40
2022-11-08T05:54:08.063Z,0.28
2022-11-08T05:57:31.031Z,0.40
2022-11-08T06:01:03.817Z,0.50
2022-11-08T06:04:26.072Z,0.30
2022-11-08T06:07:48.411Z,0.40
2022-11-08T06:11:16.327Z,0.30
2022-11-08T06:14:38.519Z,0.30
2022-11-08T06:18:05.047Z,0.30
2022-11-08T06:21:27.728Z,0.40
2022-11-08T06:24:49.994Z,0.40
2022-11-08T06:28:13.200Z,0.30
2022-11-08T06:31:39.340Z,0.38
2022-11-08T06:35:05.414Z,0.30
2022-11-08T06:38:27.715Z,0.30
2022-11-08T06:41:50.029Z,0.65
2022-11-08T06:45:12.235Z,0.98
2022-11-08T06:48:36.246Z,0.60
2022-11-08T06:51:58.793Z,0.60
2022-11-08T06:55:21.010Z,0.95
2022-11-08T06:58:43.279Z,0.40
2022-11-08T07:02:05.718Z,0.77
2022-11-08T07:05:29.885Z,0.77
2022-11-08T07:08:52.286Z,0.87
2022-11-08T07:12:14.489Z,0.73
2022-11-08T07:15:38.136Z,0.60
2022-11-08T07:19:00.356Z,0.82
2022-11-08T07:22:22.576Z,1.00
2022-11-08T07:25:44.946Z,0.70
2022-11-08T07:29:07.161Z,1.23
2022-11-08T07:32:29.649Z,0.63
2022-11-08T07:35:51.891Z,1.05
2022-11-08T07:39:14.173Z,0.65
2022-11-08T07:43:04.847Z,1.15
2022-11-08T07:46:19.793Z,1.35
2022-11-08T07:49:42.034Z,0.73
2022-11-08T07:53:04.315Z,0.85
2022-11-08T07:56:26.507Z,0.73
2022-11-08T07:59:49.880Z,0.90
2022-11-08T08:03:14.962Z,1.05
2022-11-08T08:09:59.455Z,0.90
2022-11-08T08:13:21.778Z,0.82
2022-11-08T08:16:44.001Z,0.95
2022-11-08T08:20:07.679Z,0.65
2022-11-08T08:23:29.853Z,1.20
2022-11-08T08:26:52.193Z,1.08
2022-11-08T08:30:15.028Z,1.00
2022-11-08T08:33:38.008Z,1.00
2022-11-08T08:37:00.486Z,1.33
2022-11-08T08:40:22.680Z,1.20
2022-11-08T08:43:44.885Z,1.00
2022-11-08T08:47:07.205Z,0.90
2022-11-08T08:50:30.771Z,1.25
2022-11-08T08:53:52.999Z,1.02
2022-11-08T08:57:15.168Z,0.90
2022-11-08T09:04:20.096Z,1.10
2022-11-08T09:07:42.488Z,1.02
2022-11-08T09:11:04.996Z,1.00
2022-11-08T09:14:27.364Z,1.30
2022-11-08T09:17:49.676Z,1.15
2022-11-08T09:21:11.933Z,1.08
2022-11-08T09:24:34.722Z,1.20
2022-11-08T09:27:43.596Z,0.90
2022-11-08T09:31:09.227Z,1.00
2022-11-08T09:34:31.409Z,1.00
2022-11-08T09:37:54.315Z,1.05
2022-11-08T09:41:34.546Z,0.90
2022-11-08T09:45:20.811Z,1.15
2022-11-08T09:48:45.064Z,1.20
2022-11-08T09:52:09.874Z,0.80
2022-11-08T09:55:44.592Z,1.23
2022-11-08T09:59:25.505Z,1.50
2022-11-08T10:02:47.914Z,1.05
2022-11-08T10:06:47.365Z,1.38
2022-11-08T10:10:29.508Z,1.38
2022-11-08T10:13:51.656Z,1.20
2022-11-08T10:17:35.670Z,0.98
2022-11-08T10:21:08.778Z,0.80
2022-11-08T10:25:03.504Z,1.40
2022-11-08T10:28:36.639Z,1.13
2022-11-08T10:32:05.495Z,1.27
2022-11-08T10:35:38.109Z,1.23
2022-11-08T10:39:03.669Z,1.10
2022-11-08T10:42:45.977Z,1.17
2022-11-08T10:46:37.912Z,0.90
2022-11-08T10:50:04.081Z,0.90
2022-11-08T10:53:29.713Z,1.50
2022-11-08T10:56:58.407Z,1.20
2022-11-08T11:00:20.548Z,1.38
2022-11-08T11:03:44.308Z,1.13
2022-11-08T11:07:30.656Z,1.00
2022-11-08T11:10:52.983Z,0.93
2022-11-08T11:14:22.153Z,1.15
2022-11-08T11:17:46.462Z,1.20
2022-11-08T11:21:18.850Z,0.90
2022-11-08T11:24:50.985Z,1.42
2022-11-08T11:28:14.057Z,1.85
2022-11-08T11:31:38.807Z,1.38
2022-11-08T11:35:07.429Z,1.80
2022-11-08T11:38:58.025Z,1.20
2022-11-08T11:42:44.358Z,1.30
2022-11-08T11:46:22.914Z,1.17
2022-11-08T11:49:46.713Z,1.42
2022-11-08T11:53:29.799Z,1.20
2022-11-08T11:57:04.847Z,1.23
2022-11-08T12:00:27.075Z,1.42
2022-11-08T12:03:51.946Z,1.27
2022-11-08T12:07:28.433Z,1.83
2022-11-08T12:11:29.305Z,1.27
2022-11-08T12:14:55.649Z,1.17
2022-11-08T12:18:47.066Z,0.90
2022-11-08T12:22:20.333Z,1.05
2022-11-08T12:26:16.133Z,0.90
2022-11-08T12:30:01.349Z,1.17
2022-11-08T12:33:47.563Z,1.50
2022-11-08T12:37:28.954Z,1.52
2022-11-08T12:41:18.312Z,1.20
2022-11-08T12:45:06.756Z,1.15
2022-11-08T12:48:37.952Z,1.17
2022-11-08T12:52:24.590Z,1.27
2022-11-08T12:55:53.026Z,1.27
2022-11-08T12:59:49.030Z,2.08
2022-11-08T13:03:11.147Z,1.23
2022-11-08T13:06:38.419Z,1.15
2022-11-08T13:10:26.812Z,1.55
2022-11-08T13:13:54.170Z,1.48
2022-11-08T13:17:26.925Z,1.27
2022-11-08T13:20:50.098Z,0.88
2022-11-08T13:24:42.990Z,1.30
2022-11-08T13:27:59.863Z,1.33
2022-11-08T13:31:42.127Z,0.98
2022-11-08T13:35:27.339Z,1.40
2022-11-08T13:39:18.182Z,1.10
2022-11-08T13:42:58.012Z,1.13
2022-11-08T13:46:20.269Z,1.60
2022-11-08T13:49:42.485Z,1.13
2022-11-08T13:53:20.393Z,1.40
2022-11-08T13:56:42.530Z,1.55
2022-11-08T14:00:29.974Z,1.23
2022-11-08T14:03:53.132Z,1.33
2022-11-08T14:07:43.095Z,1.00
2022-11-08T14:11:31.451Z,1.50
2022-11-08T14:15:18.445Z,1.42
2022-11-08T14:18:40.635Z,1.63
2022-11-08T14:22:03.376Z,1.63
2022-11-08T14:25:34.249Z,1.50
2022-11-08T14:29:00.127Z,1.25
2022-11-08T14:32:22.259Z,1.30
2022-11-08T14:36:02.460Z,1.02
2022-11-08T14:39:33.383Z,1.40
2022-11-08T14:42:56.339Z,1.70
2022-11-08T14:46:39.929Z,1.30
2022-11-08T14:50:02.080Z,1.23
2022-11-08T14:53:26.994Z,1.13
2022-11-08T14:56:50.385Z,1.05
2022-11-08T15:00:26.700Z,1.20
2022-11-08T15:03:57.897Z,1.52
2022-11-08T15:07:21.958Z,1.55
2022-11-08T15:11:02.447Z,1.20
2022-11-08T15:14:27.623Z,1.13
2022-11-08T15:21:32.589Z,0.95
2022-11-08T15:25:14.105Z,1.10
2022-11-08T15:28:36.410Z,1.10
2022-11-08T15:32:01.722Z,1.08
2022-11-08T15:35:28.842Z,1.40
2022-11-08T15:38:51.120Z,1.10
2022-11-08T15:42:15.009Z,1.42
2022-11-08T15:45:37.228Z,1.33
2022-11-08T15:49:00.255Z,1.20
2022-11-08T15:52:22.400Z,1.17
2022-11-08T15:55:54.892Z,1.10
2022-11-08T15:59:21.570Z,1.05
2022-11-08T16:02:45.084Z,1.15
2022-11-08T16:06:09.573Z,1.52
2022-11-08T16:09:31.756Z,1.23
2022-11-08T16:12:53.937Z,1.00
2022-11-08T16:16:17.938Z,1.00
2022-11-08T16:19:40.084Z,1.27
2022-11-08T16:23:04.389Z,1.77
2022-11-08T16:26:26.558Z,1.00
2022-11-08T16:29:48.740Z,1.30
2022-11-08T16:33:19.983Z,1.23
2022-11-08T16:36:45.055Z,1.15
2022-11-08T16:40:22.687Z,1.30
2022-11-08T16:43:45.254Z,1.00
2022-11-08T16:47:16.969Z,1.00
2022-11-08T16:50:40.328Z,1.38
2022-11-08T16:54:03.582Z,1.00
2022-11-08T16:57:34.728Z,1.25
2022-11-08T17:00:57.755Z,1.00
2022-11-08T17:04:19.976Z,1.10
2022-11-08T17:07:42.190Z,0.95
2022-11-08T17:11:04.355Z,1.15
2022-11-08T17:14:26.513Z,1.50
2022-11-08T17:17:50.481Z,1.13
2022-11-08T17:21:42.992Z,1.10
2022-11-08T17:24:56.480Z,1.10
2022-11-08T17:28:18.917Z,1.20
2022-11-08T17:31:41.269Z,1.15
2022-11-08T17:35:05.581Z,1.20
2022-11-08T17:38:27.725Z,1.17
2022-11-08T17:41:49.947Z,1.15
2022-11-08T17:45:12.328Z,1.42
2022-11-08T17:48:34.991Z,1.20
2022-11-08T17:51:57.142Z,1.17
2022-11-08T17:55:19.388Z,4.18
2022-11-08T17:58:41.632Z,16.95
2022-11-08T18:02:03.932Z,21.02
2022-11-08T18:05:26.137Z,20.20
2022-11-08T18:08:48.605Z,45.03
2022-11-08T18:12:10.783Z,49.65
2022-11-08T18:15:32.952Z,41.83
2022-11-08T18:18:55.913Z,38.25
2022-11-08T18:22:18.051Z,35.05
2022-11-08T18:25:40.326Z,34.45
2022-11-08T18:29:03.655Z,32.33
2022-11-08T18:32:25.861Z,41.92
2022-11-08T18:35:48.191Z,47.80
2022-11-08T18:39:14.070Z,39.13
2022-11-08T18:42:40.385Z,39.75
2022-11-08T18:46:08.600Z,40.67
2022-11-08T18:49:30.792Z,35.90
2022-11-08T18:52:52.971Z,37.50
2022-11-08T18:56:16.184Z,34.67
2022-11-08T18:59:38.397Z,35.33
2022-11-08T19:03:01.997Z,31.88
2022-11-08T19:06:24.166Z,34.33
2022-11-08T19:09:47.367Z,31.50
2022-11-08T19:13:09.494Z,29.63
2022-11-08T19:16:31.791Z,30.92
2022-11-08T19:19:53.974Z,27.80
2022-11-08T19:23:16.331Z,25.02
2022-11-08T19:26:38.719Z,24.00
2022-11-08T19:30:01.334Z,28.45
2022-11-08T19:33:25.460Z,25.40
2022-11-08T19:36:52.698Z,25.45
2022-11-08T19:40:17.621Z,21.20
2022-11-08T19:43:41.599Z,25.58
2022-11-08T19:47:03.757Z,21.17
2022-11-08T19:50:26.149Z,18.27
2022-11-08T19:53:48.731Z,17.55
2022-11-08T19:57:11.052Z,17.30
2022-11-08T20:00:33.474Z,17.55
2022-11-08T20:03:57.635Z,15.75
2022-11-08T20:07:19.863Z,16.75
2022-11-08T20:10:42.307Z,16.65
2022-11-08T20:14:05.338Z,15.48
2022-11-08T20:17:27.721Z,15.43
2022-11-08T20:20:49.962Z,14.93
2022-11-08T20:24:13.021Z,13.30
2022-11-08T20:27:35.322Z,14.93
2022-11-08T20:31:05.799Z,12.93
2022-11-08T20:34:29.817Z,12.38
2022-11-08T20:37:55.986Z,10.77
2022-11-08T20:41:18.698Z,12.43
2022-11-08T20:44:41.264Z,10.32
2022-11-08T20:48:03.653Z,11.35
2022-11-08T20:51:26.067Z,8.85
2022-11-08T20:54:49.653Z,10.05
2022-11-08T20:58:11.811Z,8.77
2022-11-08T21:01:35.838Z,9.98
2022-11-08T21:04:58.142Z,8.75
2022-11-08T21:12:03.448Z,7.78
2022-11-08T21:15:27.358Z,7.55
2022-11-08T21:18:49.559Z,7.20
2022-11-08T21:22:17.775Z,6.97
2022-11-08T21:25:39.944Z,6.53
2022-11-08T21:29:03.160Z,6.13
2022-11-08T21:32:25.330Z,7.32
2022-11-08T21:35:54.672Z,6.55
2022-11-08T21:39:16.864Z,5.65
2022-11-08T21:42:41.695Z,6.53
2022-11-08T21:46:20.693Z,6.03
2022-11-08T21:49:42.860Z,5.75
2022-11-08T21:53:06.435Z,5.93
2022-11-08T21:56:30.551Z,5.50
2022-11-08T21:59:52.751Z,5.78
2022-11-08T22:03:14.898Z,5.40
2022-11-08T22:06:37.206Z,4.72
2022-11-08T22:09:59.661Z,5.10
2022-11-08T22:13:22.143Z,4.35
2022-11-08T22:16:45.024Z,5.07
2022-11-08T22:20:08.022Z,4.40
2022-11-08T22:23:30.227Z,4.35
2022-11-08T22:26:52.737Z,4.47
2022-11-08T22:30:16.785Z,4.80
2022-11-08T22:33:39.189Z,4.13
2022-11-08T22:37:01.436Z,3.90
2022-11-08T22:40:23.754Z,4.25
2022-11-08T22:43:46.777Z,3.90
2022-11-08T22:47:08.943Z,5.85
2022-11-08T22:50:31.165Z,3.38
2022-11-08T22:53:53.324Z,3.63
2022-11-08T22:57:15.537Z,3.95
2022-11-08T23:00:37.919Z,4.07
2022-11-08T23:04:00.360Z,3.50
2022-11-08T23:07:22.547Z,3.20
2022-11-08T23:11:14.061Z,3.40
2022-11-08T23:14:54.601Z,3.75
2022-11-08T23:18:16.824Z,2.85
2022-11-08T23:21:57.737Z,3.10
2022-11-08T23:25:19.922Z,3.45
2022-11-08T23:29:00.615Z,2.88
2022-11-08T23:32:22.857Z,3.60
2022-11-08T23:36:04.929Z,2.70
2022-11-08T23:39:27.048Z,3.30
2022-11-08T23:43:07.930Z,2.78
2022-11-08T23:46:30.165Z,3.00
2022-11-08T23:49:52.291Z,2.88
2022-11-08T23:53:14.496Z,2.63
2022-11-08T23:56:36.881Z,2.40
2022-11-08T23:59:59.047Z,2.47
